sensor_id;sensor_type;location;lat;lon;timestamp;pressure;altitude;pressure_sealevel;temperature;humidity
32492;BME280;20605;49.742;18.802;2023-04-21T00:01:30;97934.52;;;5.23;100.00
32492;BME280;20605;49.742;18.802;2023-04-21T00:03:56;97931.77;;;5.21;100.00
32492;BME280;20605;49.742;18.802;2023-04-21T00:06:22;97928.00;;;5.20;100.00
32492;BME280;20605;49.742;18.802;2023-04-21T00:08:48;97927.34;;;5.20;100.00
32492;BME280;20605;49.742;18.802;2023-04-21T00:11:14;97926.61;;;5.21;100.00
32492;BME280;20605;49.742;18.802;2023-04-21T00:13:39;97925.89;;;5.25;100.00
32492;BME280;20605;49.742;18.802;2023-04-21T00:16:05;97922.45;;;5.25;100.00
32492;BME280;20605;49.742;18.802;2023-04-21T00:18:31;97931.24;;;5.23;100.00
32492;BME280;20605;49.742;18.802;2023-04-21T00:20:57;97923.39;;;5.18;100.00
32492;BME280;20605;49.742;18.802;2023-04-21T00:23:23;97920.66;;;5.16;100.00
32492;BME280;20605;49.742;18.802;2023-04-21T00:25:48;97919.14;;;5.13;100.00
32492;BME280;20605;49.742;18.802;2023-04-21T00:28:14;97922.09;;;5.09;100.00
32492;BME280;20605;49.742;18.802;2023-04-21T00:33:27;97925.60;;;5.01;100.00
32492;BME280;20605;49.742;18.802;2023-04-21T00:36:53;97922.56;;;4.94;100.00
32492;BME280;20605;49.742;18.802;2023-04-21T00:40:18;97921.03;;;4.90;100.00
32492;BME280;20605;49.742;18.802;2023-04-21T00:44:01;97923.44;;;4.91;100.00
32492;BME280;20605;49.742;18.802;2023-04-21T00:47:26;97919.84;;;4.90;100.00
32492;BME280;20605;49.742;18.802;2023-04-21T00:50:52;97919.50;;;4.90;100.00
32492;BME280;20605;49.742;18.802;2023-04-21T00:54:18;97912.80;;;4.87;100.00
32492;BME280;20605;49.742;18.802;2023-04-21T00:57:45;97917.11;;;4.87;100.00
32492;BME280;20605;49.742;18.802;2023-04-21T01:01:12;97917.81;;;4.84;100.00
32492;BME280;20605;49.742;18.802;2023-04-21T01:04:37;97916.98;;;4.80;100.00
32492;BME280;20605;49.742;18.802;2023-04-21T01:08:03;97914.45;;;4.74;100.00
32492;BME280;20605;49.742;18.802;2023-04-21T01:11:29;97913.97;;;4.67;100.00
32492;BME280;20605;49.742;18.802;2023-04-21T01:14:55;97911.23;;;4.63;100.00
32492;BME280;20605;49.742;18.802;2023-04-21T01:18:21;97911.96;;;4.58;100.00
32492;BME280;20605;49.742;18.802;2023-04-21T01:21:47;97913.36;;;4.55;100.00
32492;BME280;20605;49.742;18.802;2023-04-21T01:25:13;97908.56;;;4.51;100.00
32492;BME280;20605;49.742;18.802;2023-04-21T01:28:39;97910.80;;;4.52;100.00
32492;BME280;20605;49.742;18.802;2023-04-21T01:32:06;97908.39;;;4.52;100.00
32492;BME280;20605;49.742;18.802;2023-04-21T01:35:31;97916.13;;;4.52;100.00
32492;BME280;20605;49.742;18.802;2023-04-21T01:38:57;97910.31;;;4.48;100.00
32492;BME280;20605;49.742;18.802;2023-04-21T01:42:24;97910.32;;;4.45;100.00
32492;BME280;20605;49.742;18.802;2023-04-21T01:45:49;97907.43;;;4.40;100.00
32492;BME280;20605;49.742;18.802;2023-04-21T01:49:15;97905.55;;;4.36;100.00
32492;BME280;20605;49.742;18.802;2023-04-21T01:52:41;97909.52;;;4.34;100.00
32492;BME280;20605;49.742;18.802;2023-04-21T01:56:07;97908.50;;;4.33;100.00
32492;BME280;20605;49.742;18.802;2023-04-21T01:59:33;97908.66;;;4.35;100.00
32492;BME280;20605;49.742;18.802;2023-04-21T02:03:02;97911.74;;;4.37;100.00
32492;BME280;20605;49.742;18.802;2023-04-21T02:06:28;97910.20;;;4.38;100.00
32492;BME280;20605;49.742;18.802;2023-04-21T02:09:54;97908.63;;;4.40;100.00
32492;BME280;20605;49.742;18.802;2023-04-21T02:13:20;97915.52;;;4.37;100.00
32492;BME280;20605;49.742;18.802;2023-04-21T02:16:46;97916.22;;;4.36;100.00
32492;BME280;20605;49.742;18.802;2023-04-21T02:20:12;97920.52;;;4.34;100.00
32492;BME280;20605;49.742;18.802;2023-04-21T02:23:38;97918.66;;;4.29;100.00
32492;BME280;20605;49.742;18.802;2023-04-21T02:27:05;97917.14;;;4.23;100.00
32492;BME280;20605;49.742;18.802;2023-04-21T02:30:32;97915.61;;;4.19;100.00
32492;BME280;20605;49.742;18.802;2023-04-21T02:33:57;97914.41;;;4.19;100.00
32492;BME280;20605;49.742;18.802;2023-04-21T02:37:23;97912.31;;;4.26;100.00
32492;BME280;20605;49.742;18.802;2023-04-21T02:40:49;97911.24;;;4.33;100.00
32492;BME280;20605;49.742;18.802;2023-04-21T02:44:15;97909.50;;;4.38;100.00
32492;BME280;20605;49.742;18.802;2023-04-21T02:47:42;97907.94;;;4.40;100.00
32492;BME280;20605;49.742;18.802;2023-04-21T02:51:11;97906.58;;;4.38;100.00
32492;BME280;20605;49.742;18.802;2023-04-21T02:54:37;97905.05;;;4.36;100.00
32492;BME280;20605;49.742;18.802;2023-04-21T02:58:03;97902.48;;;4.33;100.00
32492;BME280;20605;49.742;18.802;2023-04-21T03:01:29;97905.08;;;4.28;100.00
32492;BME280;20605;49.742;18.802;2023-04-21T03:04:55;97904.76;;;4.25;100.00
32492;BME280;20605;49.742;18.802;2023-04-21T03:08:21;97904.95;;;4.20;100.00
32492;BME280;20605;49.742;18.802;2023-04-21T03:11:47;97906.16;;;4.20;100.00
32492;BME280;20605;49.742;18.802;2023-04-21T03:15:13;97910.09;;;4.23;100.00
32492;BME280;20605;49.742;18.802;2023-04-21T03:18:39;97912.50;;;4.24;100.00
32492;BME280;20605;49.742;18.802;2023-04-21T03:22:06;97911.65;;;4.22;100.00
32492;BME280;20605;49.742;18.802;2023-04-21T03:25:32;97912.69;;;4.21;100.00
32492;BME280;20605;49.742;18.802;2023-04-21T03:28:58;97914.58;;;4.18;100.00
32492;BME280;20605;49.742;18.802;2023-04-21T03:32:24;97914.79;;;4.12;100.00
32492;BME280;20605;49.742;18.802;2023-04-21T03:35:33;97914.98;;;4.10;100.00
32492;BME280;20605;49.742;18.802;2023-04-21T03:38:59;97919.41;;;4.13;100.00
32492;BME280;20605;49.742;18.802;2023-04-21T03:42:09;97914.25;;;4.16;100.00
32492;BME280;20605;49.742;18.802;2023-04-21T03:45:34;97915.77;;;4.21;100.00
32492;BME280;20605;49.742;18.802;2023-04-21T03:49:00;97916.59;;;4.30;100.00
32492;BME280;20605;49.742;18.802;2023-04-21T03:52:26;97918.81;;;4.31;100.00
32492;BME280;20605;49.742;18.802;2023-04-21T03:55:52;97918.98;;;4.34;100.00
32492;BME280;20605;49.742;18.802;2023-04-21T03:59:18;97918.78;;;4.39;100.00
32492;BME280;20605;49.742;18.802;2023-04-21T04:02:45;97922.16;;;4.49;100.00
32492;BME280;20605;49.742;18.802;2023-04-21T04:06:11;97928.83;;;4.56;100.00
32492;BME280;20605;49.742;18.802;2023-04-21T04:09:37;97930.87;;;4.60;100.00
32492;BME280;20605;49.742;18.802;2023-04-21T04:13:03;97930.83;;;4.66;100.00
32492;BME280;20605;49.742;18.802;2023-04-21T04:16:29;97934.41;;;4.72;100.00
32492;BME280;20605;49.742;18.802;2023-04-21T04:19:55;97935.73;;;4.80;100.00
32492;BME280;20605;49.742;18.802;2023-04-21T04:23:21;97941.66;;;4.94;100.00
32492;BME280;20605;49.742;18.802;2023-04-21T04:26:47;97946.38;;;5.07;100.00
32492;BME280;20605;49.742;18.802;2023-04-21T04:30:14;97947.92;;;5.25;100.00
32492;BME280;20605;49.742;18.802;2023-04-21T04:33:40;97952.59;;;5.44;100.00
32492;BME280;20605;49.742;18.802;2023-04-21T04:37:06;97948.28;;;5.62;100.00
32492;BME280;20605;49.742;18.802;2023-04-21T04:40:32;97945.02;;;5.79;100.00
32492;BME280;20605;49.742;18.802;2023-04-21T04:42:58;97946.67;;;6.03;100.00
32492;BME280;20605;49.742;18.802;2023-04-21T04:45:25;97943.90;;;6.33;100.00
32492;BME280;20605;49.742;18.802;2023-04-21T04:47:51;97946.30;;;6.59;100.00
32492;BME280;20605;49.742;18.802;2023-04-21T04:50:17;97945.23;;;6.85;100.00
32492;BME280;20605;49.742;18.802;2023-04-21T04:52:42;97945.26;;;7.18;100.00
32492;BME280;20605;49.742;18.802;2023-04-21T04:55:12;97945.37;;;7.52;100.00
32492;BME280;20605;49.742;18.802;2023-04-21T04:57:38;97942.46;;;7.88;100.00
32492;BME280;20605;49.742;18.802;2023-04-21T05:00:05;97941.88;;;8.18;100.00
32492;BME280;20605;49.742;18.802;2023-04-21T05:02:32;97945.13;;;8.55;100.00
32492;BME280;20605;49.742;18.802;2023-04-21T05:04:58;97944.63;;;9.00;100.00
32492;BME280;20605;49.742;18.802;2023-04-21T05:07:23;97947.19;;;9.23;100.00
32492;BME280;20605;49.742;18.802;2023-04-21T05:09:49;97943.27;;;9.28;100.00
32492;BME280;20605;49.742;18.802;2023-04-21T05:12:24;97949.88;;;9.47;100.00
32492;BME280;20605;49.742;18.802;2023-04-21T05:14:50;97948.24;;;9.71;100.00
32492;BME280;20605;49.742;18.802;2023-04-21T05:17:16;97943.00;;;9.86;100.00
32492;BME280;20605;49.742;18.802;2023-04-21T05:19:42;97943.55;;;9.98;100.00
32492;BME280;20605;49.742;18.802;2023-04-21T05:22:07;97943.52;;;10.11;100.00
32492;BME280;20605;49.742;18.802;2023-04-21T05:24:33;97941.27;;;10.36;100.00
32492;BME280;20605;49.742;18.802;2023-04-21T05:26:59;97941.46;;;10.65;100.00
32492;BME280;20605;49.742;18.802;2023-04-21T05:29:25;97942.98;;;10.90;100.00
32492;BME280;20605;49.742;18.802;2023-04-21T05:31:51;97941.98;;;11.15;100.00
32492;BME280;20605;49.742;18.802;2023-04-21T05:34:16;97938.14;;;11.33;100.00
32492;BME280;20605;49.742;18.802;2023-04-21T05:36:42;97937.27;;;11.79;100.00
32492;BME280;20605;49.742;18.802;2023-04-21T05:39:08;97937.60;;;12.43;100.00
32492;BME280;20605;49.742;18.802;2023-04-21T05:41:33;97942.95;;;12.81;100.00
32492;BME280;20605;49.742;18.802;2023-04-21T05:43:59;97943.14;;;13.51;100.00
32492;BME280;20605;49.742;18.802;2023-04-21T05:46:26;97946.56;;;14.18;100.00
32492;BME280;20605;49.742;18.802;2023-04-21T05:48:51;97944.39;;;14.70;100.00
32492;BME280;20605;49.742;18.802;2023-04-21T05:51:17;97942.16;;;15.14;100.00
32492;BME280;20605;49.742;18.802;2023-04-21T05:53:43;97938.52;;;15.63;100.00
32492;BME280;20605;49.742;18.802;2023-04-21T05:56:09;97938.08;;;15.86;100.00
32492;BME280;20605;49.742;18.802;2023-04-21T05:58:35;97941.79;;;15.92;100.00
32492;BME280;20605;49.742;18.802;2023-04-21T06:01:01;97941.08;;;16.40;100.00
32492;BME280;20605;49.742;18.802;2023-04-21T06:03:26;97940.35;;;16.92;100.00
32492;BME280;20605;49.742;18.802;2023-04-21T06:05:54;97939.48;;;17.39;100.00
32492;BME280;20605;49.742;18.802;2023-04-21T06:08:20;97937.96;;;18.01;100.00
32492;BME280;20605;49.742;18.802;2023-04-21T06:10:46;97933.33;;;18.40;100.00
32492;BME280;20605;49.742;18.802;2023-04-21T06:13:11;97932.88;;;18.98;100.00
32492;BME280;20605;49.742;18.802;2023-04-21T06:15:37;97928.67;;;19.39;100.00
32492;BME280;20605;49.742;18.802;2023-04-21T06:18:02;97930.57;;;19.92;100.00
32492;BME280;20605;49.742;18.802;2023-04-21T06:20:28;97928.89;;;20.72;100.00
32492;BME280;20605;49.742;18.802;2023-04-21T06:22:53;97929.35;;;21.44;100.00
32492;BME280;20605;49.742;18.802;2023-04-21T06:25:19;97924.92;;;22.26;100.00
32492;BME280;20605;49.742;18.802;2023-04-21T06:27:45;97920.14;;;22.94;96.73
32492;BME280;20605;49.742;18.802;2023-04-21T06:30:11;97919.86;;;23.15;98.36
32492;BME280;20605;49.742;18.802;2023-04-21T06:32:37;97919.04;;;23.40;99.39
32492;BME280;20605;49.742;18.802;2023-04-21T06:35:03;97916.87;;;24.00;93.32
32492;BME280;20605;49.742;18.802;2023-04-21T06:37:28;97918.63;;;24.46;95.22
32492;BME280;20605;49.742;18.802;2023-04-21T06:39:54;97916.95;;;24.41;89.97
32492;BME280;20605;49.742;18.802;2023-04-21T06:42:19;97920.08;;;24.19;90.77
32492;BME280;20605;49.742;18.802;2023-04-21T06:44:45;97920.55;;;24.54;90.42
32492;BME280;20605;49.742;18.802;2023-04-21T06:47:10;97921.27;;;24.93;90.82
32492;BME280;20605;49.742;18.802;2023-04-21T06:49:36;97918.27;;;25.36;88.22
32492;BME280;20605;49.742;18.802;2023-04-21T06:52:02;97917.19;;;25.86;88.63
32492;BME280;20605;49.742;18.802;2023-04-21T06:54:29;97913.46;;;26.44;85.19
32492;BME280;20605;49.742;18.802;2023-04-21T06:56:54;97914.23;;;26.92;85.20
32492;BME280;20605;49.742;18.802;2023-04-21T06:59:21;97914.05;;;27.59;85.48
32492;BME280;20605;49.742;18.802;2023-04-21T07:01:48;97915.02;;;28.17;81.49
32492;BME280;20605;49.742;18.802;2023-04-21T07:04:19;97914.99;;;28.22;80.75
32492;BME280;20605;49.742;18.802;2023-04-21T07:06:45;97914.98;;;28.31;79.43
32492;BME280;20605;49.742;18.802;2023-04-21T07:09:13;97909.71;;;28.41;80.09
32492;BME280;20605;49.742;18.802;2023-04-21T07:11:39;97915.29;;;28.68;79.37
32492;BME280;20605;49.742;18.802;2023-04-21T07:14:04;97915.09;;;28.95;76.57
32492;BME280;20605;49.742;18.802;2023-04-21T07:16:31;97912.77;;;29.19;76.87
32492;BME280;20605;49.742;18.802;2023-04-21T07:18:56;97913.73;;;29.57;76.03
32492;BME280;20605;49.742;18.802;2023-04-21T07:21:22;97913.91;;;30.01;76.05
32492;BME280;20605;49.742;18.802;2023-04-21T07:23:48;97909.31;;;30.18;73.40
32492;BME280;20605;49.742;18.802;2023-04-21T07:26:13;97907.20;;;30.16;72.91
32492;BME280;20605;49.742;18.802;2023-04-21T07:28:39;97905.67;;;29.96;72.37
32492;BME280;20605;49.742;18.802;2023-04-21T07:31:07;97903.30;;;30.03;73.22
32492;BME280;20605;49.742;18.802;2023-04-21T07:33:33;97900.98;;;30.19;72.60
32492;BME280;20605;49.742;18.802;2023-04-21T07:35:58;97898.09;;;30.24;69.20
32492;BME280;20605;49.742;18.802;2023-04-21T07:38:24;97900.26;;;30.35;69.44
32492;BME280;20605;49.742;18.802;2023-04-21T07:40:50;97898.88;;;30.36;69.95
32492;BME280;20605;49.742;18.802;2023-04-21T07:43:16;97900.35;;;30.85;70.67
32492;BME280;20605;49.742;18.802;2023-04-21T07:45:44;97894.73;;;31.34;68.48
32492;BME280;20605;49.742;18.802;2023-04-21T07:48:10;97891.64;;;31.26;67.82
32492;BME280;20605;49.742;18.802;2023-04-21T07:50:35;97891.63;;;31.12;66.14
32492;BME280;20605;49.742;18.802;2023-04-21T07:53:01;97889.12;;;31.30;66.02
32492;BME280;20605;49.742;18.802;2023-04-21T07:55:27;97888.55;;;31.24;65.42
32492;BME280;20605;49.742;18.802;2023-04-21T07:57:52;97888.81;;;31.48;65.00
32492;BME280;20605;49.742;18.802;2023-04-21T08:00:18;97880.04;;;31.95;64.92
32492;BME280;20605;49.742;18.802;2023-04-21T08:02:43;97881.92;;;31.99;64.29
32492;BME280;20605;49.742;18.802;2023-04-21T08:05:09;97881.39;;;32.31;64.57
32492;BME280;20605;49.742;18.802;2023-04-21T08:07:35;97883.36;;;32.53;63.80
32492;BME280;20605;49.742;18.802;2023-04-21T08:10:01;97880.14;;;32.83;62.78
32492;BME280;20605;49.742;18.802;2023-04-21T08:12:27;97874.20;;;32.84;61.37
32492;BME280;20605;49.742;18.802;2023-04-21T08:14:52;97876.23;;;32.68;61.45
32492;BME280;20605;49.742;18.802;2023-04-21T08:17:18;97874.10;;;32.45;60.23
32492;BME280;20605;49.742;18.802;2023-04-21T08:19:43;97875.73;;;32.49;61.37
32492;BME280;20605;49.742;18.802;2023-04-21T08:22:09;97871.02;;;32.66;59.98
32492;BME280;20605;49.742;18.802;2023-04-21T08:24:34;97869.56;;;32.69;59.60
32492;BME280;20605;49.742;18.802;2023-04-21T08:27:00;97868.42;;;33.22;59.78
32492;BME280;20605;49.742;18.802;2023-04-21T08:29:26;97859.10;;;33.25;57.44
32492;BME280;20605;49.742;18.802;2023-04-21T08:31:52;97860.48;;;33.02;57.72
32492;BME280;20605;49.742;18.802;2023-04-21T08:34:17;97860.66;;;32.79;57.82
32492;BME280;20605;49.742;18.802;2023-04-21T08:36:44;97865.19;;;32.68;56.67
32492;BME280;20605;49.742;18.802;2023-04-21T08:39:11;97859.44;;;32.66;55.60
32492;BME280;20605;49.742;18.802;2023-04-21T08:41:37;97858.45;;;32.75;53.99
32492;BME280;20605;49.742;18.802;2023-04-21T08:44:04;97857.65;;;32.74;52.89
32492;BME280;20605;49.742;18.802;2023-04-21T08:46:30;97859.53;;;32.83;53.28
32492;BME280;20605;49.742;18.802;2023-04-21T08:48:57;97854.03;;;33.15;53.11
32492;BME280;20605;49.742;18.802;2023-04-21T08:51:23;97849.64;;;33.26;50.52
32492;BME280;20605;49.742;18.802;2023-04-21T08:53:53;97852.06;;;32.64;50.69
32492;BME280;20605;49.742;18.802;2023-04-21T08:56:19;97841.29;;;32.16;50.73
32492;BME280;20605;49.742;18.802;2023-04-21T08:58:44;97840.64;;;31.84;49.73
32492;BME280;20605;49.742;18.802;2023-04-21T09:01:09;97838.05;;;31.63;49.55
32492;BME280;20605;49.742;18.802;2023-04-21T09:03:36;97837.45;;;31.33;49.56
32492;BME280;20605;49.742;18.802;2023-04-21T09:08:29;97833.25;;;31.37;49.88
32492;BME280;20605;49.742;18.802;2023-04-21T09:10:55;97833.86;;;31.38;49.49
32492;BME280;20605;49.742;18.802;2023-04-21T09:13:22;97827.86;;;31.09;49.04
32492;BME280;20605;49.742;18.802;2023-04-21T09:15:52;97828.95;;;30.70;48.50
32492;BME280;20605;49.742;18.802;2023-04-21T09:18:19;97825.74;;;30.22;48.33
32492;BME280;20605;49.742;18.802;2023-04-21T09:20:46;97831.92;;;29.70;49.04
32492;BME280;20605;49.742;18.802;2023-04-21T09:23:13;97824.20;;;29.77;48.70
32492;BME280;20605;49.742;18.802;2023-04-21T09:25:39;97833.48;;;29.80;49.08
32492;BME280;20605;49.742;18.802;2023-04-21T09:28:09;97830.20;;;30.05;48.81
32492;BME280;20605;49.742;18.802;2023-04-21T09:30:35;97826.36;;;30.20;48.19
32492;BME280;20605;49.742;18.802;2023-04-21T09:33:01;97821.77;;;29.94;48.99
32492;BME280;20605;49.742;18.802;2023-04-21T09:35:27;97822.63;;;30.20;50.21
32492;BME280;20605;49.742;18.802;2023-04-21T09:37:53;97828.41;;;29.68;47.11
32492;BME280;20605;49.742;18.802;2023-04-21T09:40:19;97825.70;;;28.10;46.54
32492;BME280;20605;49.742;18.802;2023-04-21T09:42:44;97828.98;;;26.32;47.32
32492;BME280;20605;49.742;18.802;2023-04-21T09:45:10;97831.41;;;24.71;48.45
32492;BME280;20605;49.742;18.802;2023-04-21T09:47:39;97828.63;;;23.57;49.69
32492;BME280;20605;49.742;18.802;2023-04-21T09:50:06;97828.39;;;22.72;51.24
32492;BME280;20605;49.742;18.802;2023-04-21T09:52:33;97828.52;;;22.13;52.78
32492;BME280;20605;49.742;18.802;2023-04-21T09:55:01;97826.11;;;22.10;54.24
32492;BME280;20605;49.742;18.802;2023-04-21T09:57:30;97824.29;;;22.26;53.92
32492;BME280;20605;49.742;18.802;2023-04-21T10:00:05;97820.96;;;22.08;53.98
32492;BME280;20605;49.742;18.802;2023-04-21T10:02:47;97815.08;;;22.06;55.05
32492;BME280;20605;49.742;18.802;2023-04-21T10:05:13;97810.09;;;22.07;54.90
32492;BME280;20605;49.742;18.802;2023-04-21T10:07:38;97810.85;;;22.01;55.49
32492;BME280;20605;49.742;18.802;2023-04-21T10:10:08;97812.36;;;22.02;55.10
32492;BME280;20605;49.742;18.802;2023-04-21T10:12:44;97803.20;;;22.02;54.79
32492;BME280;20605;49.742;18.802;2023-04-21T10:15:32;97807.94;;;22.05;54.37
32492;BME280;20605;49.742;18.802;2023-04-21T10:18:12;97804.77;;;21.75;53.63
32492;BME280;20605;49.742;18.802;2023-04-21T10:26:08;97807.57;;;20.57;50.61
32492;BME280;20605;49.742;18.802;2023-04-21T10:28:41;97808.21;;;20.35;52.34
32492;BME280;20605;49.742;18.802;2023-04-21T10:33:42;97806.33;;;20.17;52.63
32492;BME280;20605;49.742;18.802;2023-04-21T10:36:10;97801.62;;;20.16;53.14
32492;BME280;20605;49.742;18.802;2023-04-21T10:38:42;97807.95;;;20.11;52.94
32492;BME280;20605;49.742;18.802;2023-04-21T10:41:29;97803.75;;;20.04;53.08
32492;BME280;20605;49.742;18.802;2023-04-21T10:43:57;97802.98;;;19.92;53.40
32492;BME280;20605;49.742;18.802;2023-04-21T10:46:30;97793.58;;;19.72;53.86
32492;BME280;20605;49.742;18.802;2023-04-21T10:49:03;97795.77;;;19.61;53.81
32492;BME280;20605;49.742;18.802;2023-04-21T10:51:29;97798.16;;;19.47;53.89
32492;BME280;20605;49.742;18.802;2023-04-21T10:53:57;97793.82;;;19.38;52.79
32492;BME280;20605;49.742;18.802;2023-04-21T10:56:22;97790.00;;;19.32;53.22
32492;BME280;20605;49.742;18.802;2023-04-21T10:58:49;97782.80;;;19.32;53.58
32492;BME280;20605;49.742;18.802;2023-04-21T11:01:16;97778.42;;;19.34;53.72
32492;BME280;20605;49.742;18.802;2023-04-21T11:03:42;97782.50;;;19.34;53.52
32492;BME280;20605;49.742;18.802;2023-04-21T11:06:14;97775.52;;;19.30;53.35
32492;BME280;20605;49.742;18.802;2023-04-21T11:08:54;97778.17;;;19.40;53.73
32492;BME280;20605;49.742;18.802;2023-04-21T11:11:21;97774.70;;;19.45;52.94
32492;BME280;20605;49.742;18.802;2023-04-21T11:13:48;97770.14;;;19.47;52.75
32492;BME280;20605;49.742;18.802;2023-04-21T11:16:13;97765.80;;;19.48;51.97
32492;BME280;20605;49.742;18.802;2023-04-21T11:18:40;97771.11;;;19.28;51.20
32492;BME280;20605;49.742;18.802;2023-04-21T11:21:09;97773.55;;;19.07;51.79
32492;BME280;20605;49.742;18.802;2023-04-21T11:23:37;97772.70;;;19.04;52.07
32492;BME280;20605;49.742;18.802;2023-04-21T11:26:04;97770.95;;;19.14;52.44
32492;BME280;20605;49.742;18.802;2023-04-21T11:28:30;97771.15;;;19.25;52.07
32492;BME280;20605;49.742;18.802;2023-04-21T11:30:55;97765.89;;;19.27;52.40
32492;BME280;20605;49.742;18.802;2023-04-21T11:33:21;97760.23;;;19.35;52.88
32492;BME280;20605;49.742;18.802;2023-04-21T11:35:46;97763.52;;;19.28;52.42
32492;BME280;20605;49.742;18.802;2023-04-21T11:38:12;97764.63;;;18.96;52.88
32492;BME280;20605;49.742;18.802;2023-04-21T11:40:44;97759.56;;;18.71;53.18
32492;BME280;20605;49.742;18.802;2023-04-21T11:43:11;97759.14;;;18.69;54.82
32492;BME280;20605;49.742;18.802;2023-04-21T11:45:36;97757.77;;;18.87;55.19
32492;BME280;20605;49.742;18.802;2023-04-21T11:48:12;97760.46;;;19.11;55.63
32492;BME280;20605;49.742;18.802;2023-04-21T11:50:37;97759.10;;;19.23;55.32
32492;BME280;20605;49.742;18.802;2023-04-21T11:53:03;97750.82;;;19.13;54.62
32492;BME280;20605;49.742;18.802;2023-04-21T11:55:28;97752.56;;;18.92;54.95
32492;BME280;20605;49.742;18.802;2023-04-21T11:57:55;97750.20;;;18.80;54.86
32492;BME280;20605;49.742;18.802;2023-04-21T12:00:21;97739.34;;;18.87;55.54
32492;BME280;20605;49.742;18.802;2023-04-21T12:02:54;97746.92;;;19.08;55.03
32492;BME280;20605;49.742;18.802;2023-04-21T12:05:20;97746.77;;;19.20;53.88
32492;BME280;20605;49.742;18.802;2023-04-21T12:07:46;97739.09;;;19.38;54.66
32492;BME280;20605;49.742;18.802;2023-04-21T12:10:14;97741.15;;;19.69;55.25
32492;BME280;20605;49.742;18.802;2023-04-21T12:12:41;97742.04;;;19.79;54.95
32492;BME280;20605;49.742;18.802;2023-04-21T12:15:07;97744.14;;;19.77;55.47
32492;BME280;20605;49.742;18.802;2023-04-21T12:17:35;97744.79;;;19.75;55.07
32492;BME280;20605;49.742;18.802;2023-04-21T12:20:03;97739.48;;;19.63;54.73
32492;BME280;20605;49.742;18.802;2023-04-21T12:22:30;97739.08;;;19.30;54.85
32492;BME280;20605;49.742;18.802;2023-04-21T12:24:56;97735.52;;;18.99;55.20
32492;BME280;20605;49.742;18.802;2023-04-21T12:30:15;97735.56;;;18.64;55.58
32492;BME280;20605;49.742;18.802;2023-04-21T12:32:41;97731.20;;;18.74;55.86
32492;BME280;20605;49.742;18.802;2023-04-21T12:35:07;97730.06;;;18.97;55.21
32492;BME280;20605;49.742;18.802;2023-04-21T12:37:35;97728.11;;;19.18;56.32
32492;BME280;20605;49.742;18.802;2023-04-21T12:40:00;97725.59;;;19.47;56.46
32492;BME280;20605;49.742;18.802;2023-04-21T12:42:26;97736.48;;;19.68;55.44
32492;BME280;20605;49.742;18.802;2023-04-21T12:44:51;97735.19;;;19.61;54.82
32492;BME280;20605;49.742;18.802;2023-04-21T12:47:18;97736.19;;;19.29;54.19
32492;BME280;20605;49.742;18.802;2023-04-21T12:49:43;97738.05;;;18.96;54.97
32492;BME280;20605;49.742;18.802;2023-04-21T12:52:09;97738.21;;;18.75;55.22
32492;BME280;20605;49.742;18.802;2023-04-21T12:54:37;97731.88;;;18.58;55.84
32492;BME280;20605;49.742;18.802;2023-04-21T12:57:03;97729.50;;;18.46;55.75
32492;BME280;20605;49.742;18.802;2023-04-21T12:59:29;97726.33;;;18.35;56.53
32492;BME280;20605;49.742;18.802;2023-04-21T13:01:57;97722.67;;;18.21;56.04
32492;BME280;20605;49.742;18.802;2023-04-21T13:04:23;97719.73;;;18.15;56.42
32492;BME280;20605;49.742;18.802;2023-04-21T13:06:48;97711.48;;;18.18;56.72
32492;BME280;20605;49.742;18.802;2023-04-21T13:09:14;97711.13;;;18.20;57.09
32492;BME280;20605;49.742;18.802;2023-04-21T13:11:41;97717.27;;;18.31;56.98
32492;BME280;20605;49.742;18.802;2023-04-21T13:14:08;97710.42;;;18.45;56.31
32492;BME280;20605;49.742;18.802;2023-04-21T13:16:33;97703.69;;;18.56;55.07
32492;BME280;20605;49.742;18.802;2023-04-21T13:18:59;97703.80;;;18.60;54.61
32492;BME280;20605;49.742;18.802;2023-04-21T13:21:24;97702.50;;;18.67;55.17
32492;BME280;20605;49.742;18.802;2023-04-21T13:23:50;97699.01;;;18.88;56.16
32492;BME280;20605;49.742;18.802;2023-04-21T13:26:18;97702.89;;;19.08;55.87
32492;BME280;20605;49.742;18.802;2023-04-21T13:28:52;97696.95;;;19.10;54.86
32492;BME280;20605;49.742;18.802;2023-04-21T13:31:18;97701.77;;;19.01;54.73
32492;BME280;20605;49.742;18.802;2023-04-21T13:33:43;97696.48;;;18.81;54.00
32492;BME280;20605;49.742;18.802;2023-04-21T13:36:09;97696.30;;;18.57;54.24
32492;BME280;20605;49.742;18.802;2023-04-21T13:38:35;97692.63;;;18.40;54.59
32492;BME280;20605;49.742;18.802;2023-04-21T13:41:00;97692.04;;;18.27;54.48
32492;BME280;20605;49.742;18.802;2023-04-21T13:43:26;97688.60;;;18.13;54.69
32492;BME280;20605;49.742;18.802;2023-04-21T13:45:52;97690.30;;;17.98;54.78
32492;BME280;20605;49.742;18.802;2023-04-21T13:48:20;97686.60;;;17.86;54.98
32492;BME280;20605;49.742;18.802;2023-04-21T13:50:47;97685.23;;;17.83;55.22
32492;BME280;20605;49.742;18.802;2023-04-21T13:53:13;97682.64;;;17.93;54.71
32492;BME280;20605;49.742;18.802;2023-04-21T13:55:41;97678.17;;;18.06;54.39
32492;BME280;20605;49.742;18.802;2023-04-21T13:58:07;97676.70;;;18.26;55.10
32492;BME280;20605;49.742;18.802;2023-04-21T14:00:33;97674.27;;;18.43;55.25
32492;BME280;20605;49.742;18.802;2023-04-21T14:02:58;97675.84;;;18.60;54.19
32492;BME280;20605;49.742;18.802;2023-04-21T14:05:24;97673.41;;;18.68;53.92
32492;BME280;20605;49.742;18.802;2023-04-21T14:07:49;97674.13;;;18.65;53.88
32492;BME280;20605;49.742;18.802;2023-04-21T14:10:15;97674.92;;;18.55;54.50
32492;BME280;20605;49.742;18.802;2023-04-21T14:12:40;97673.91;;;18.41;54.06
32492;BME280;20605;49.742;18.802;2023-04-21T14:15:10;97679.23;;;18.14;54.23